sensor_id;sensor_type;location;lat;lon;timestamp;temperature;humidity
10662;DHT22;5379;51.034;7.006;2023-02-17T00:01:17;14.00;99.90
10662;DHT22;5379;51.034;7.006;2023-02-17T00:03:45;14.10;99.90
10662;DHT22;5379;51.034;7.006;2023-02-17T00:06:13;14.10;99.90
10662;DHT22;5379;51.034;7.006;2023-02-17T00:08:42;14.20;99.90
10662;DHT22;5379;51.034;7.006;2023-02-17T00:11:13;14.40;99.90
10662;DHT22;5379;51.034;7.006;2023-02-17T00:13:40;14.50;99.90
10662;DHT22;5379;51.034;7.006;2023-02-17T00:16:08;14.60;99.90
10662;DHT22;5379;51.034;7.006;2023-02-17T00:18:36;14.70;99.90
10662;DHT22;5379;51.034;7.006;2023-02-17T00:21:14;14.80;99.90
10662;DHT22;5379;51.034;7.006;2023-02-17T00:23:44;14.70;99.90
10662;DHT22;5379;51.034;7.006;2023-02-17T00:26:12;14.80;99.90
10662;DHT22;5379;51.034;7.006;2023-02-17T00:28:39;14.70;99.90
10662;DHT22;5379;51.034;7.006;2023-02-17T00:31:07;14.80;99.90
10662;DHT22;5379;51.034;7.006;2023-02-17T00:33:34;14.80;99.90
10662;DHT22;5379;51.034;7.006;2023-02-17T00:36:03;15.00;99.90
10662;DHT22;5379;51.034;7.006;2023-02-17T00:38:30;14.80;99.90
10662;DHT22;5379;51.034;7.006;2023-02-17T00:40:59;15.00;99.90
10662;DHT22;5379;51.034;7.006;2023-02-17T00:43:26;15.00;99.90
10662;DHT22;5379;51.034;7.006;2023-02-17T00:45:53;15.10;99.90
10662;DHT22;5379;51.034;7.006;2023-02-17T00:48:20;15.20;99.90
10662;DHT22;5379;51.034;7.006;2023-02-17T00:50:47;15.20;99.90
10662;DHT22;5379;51.034;7.006;2023-02-17T00:53:15;15.10;99.90
10662;DHT22;5379;51.034;7.006;2023-02-17T00:55:42;15.10;99.90
10662;DHT22;5379;51.034;7.006;2023-02-17T00:58:10;15.10;99.90
10662;DHT22;5379;51.034;7.006;2023-02-17T05:30:16;14.90;99.90
10662;DHT22;5379;51.034;7.006;2023-02-17T05:32:43;15.10;99.90
10662;DHT22;5379;51.034;7.006;2023-02-17T05:35:10;15.30;99.90
10662;DHT22;5379;51.034;7.006;2023-02-17T05:37:37;15.50;99.90
10662;DHT22;5379;51.034;7.006;2023-02-17T05:40:05;15.50;99.90
10662;DHT22;5379;51.034;7.006;2023-02-17T05:42:32;15.60;99.90
10662;DHT22;5379;51.034;7.006;2023-02-17T05:44:59;15.30;99.90
10662;DHT22;5379;51.034;7.006;2023-02-17T05:47:27;15.20;99.90
10662;DHT22;5379;51.034;7.006;2023-02-17T05:49:54;15.20;99.90
10662;DHT22;5379;51.034;7.006;2023-02-17T05:52:21;15.10;99.90
10662;DHT22;5379;51.034;7.006;2023-02-17T05:54:48;15.30;99.90
10662;DHT22;5379;51.034;7.006;2023-02-17T05:57:15;15.20;99.90
10662;DHT22;5379;51.034;7.006;2023-02-17T05:59:42;15.00;99.90
10662;DHT22;5379;51.034;7.006;2023-02-17T06:02:09;14.90;99.90
10662;DHT22;5379;51.034;7.006;2023-02-17T06:04:37;14.80;99.90
10662;DHT22;5379;51.034;7.006;2023-02-17T06:07:04;14.80;99.90
10662;DHT22;5379;51.034;7.006;2023-02-17T06:09:31;14.90;99.90
10662;DHT22;5379;51.034;7.006;2023-02-17T06:11:58;15.00;99.90
10662;DHT22;5379;51.034;7.006;2023-02-17T06:14:25;15.10;99.90
10662;DHT22;5379;51.034;7.006;2023-02-17T06:16:52;15.30;99.90
10662;DHT22;5379;51.034;7.006;2023-02-17T06:19:21;15.40;99.90
10662;DHT22;5379;51.034;7.006;2023-02-17T06:21:49;15.40;99.90
10662;DHT22;5379;51.034;7.006;2023-02-17T06:24:16;15.60;99.90
10662;DHT22;5379;51.034;7.006;2023-02-17T06:26:43;15.60;99.90
10662;DHT22;5379;51.034;7.006;2023-02-17T06:29:10;15.70;99.90
10662;DHT22;5379;51.034;7.006;2023-02-17T06:31:37;15.70;99.90
10662;DHT22;5379;51.034;7.006;2023-02-17T06:34:04;15.60;99.90
10662;DHT22;5379;51.034;7.006;2023-02-17T06:36:31;15.60;99.90
10662;DHT22;5379;51.034;7.006;2023-02-17T06:38:59;15.30;99.90
10662;DHT22;5379;51.034;7.006;2023-02-17T06:41:26;15.20;99.90
10662;DHT22;5379;51.034;7.006;2023-02-17T06:43:53;15.20;99.90
10662;DHT22;5379;51.034;7.006;2023-02-17T06:46:20;15.30;99.90
10662;DHT22;5379;51.034;7.006;2023-02-17T06:48:47;15.30;99.90
10662;DHT22;5379;51.034;7.006;2023-02-17T06:51:14;15.40;99.90
10662;DHT22;5379;51.034;7.006;2023-02-17T06:53:41;15.50;99.90
10662;DHT22;5379;51.034;7.006;2023-02-17T06:56:09;15.60;99.90
10662;DHT22;5379;51.034;7.006;2023-02-17T06:58:36;15.70;99.90
10662;DHT22;5379;51.034;7.006;2023-02-17T07:01:04;15.80;99.90
10662;DHT22;5379;51.034;7.006;2023-02-17T07:03:32;15.80;99.90
10662;DHT22;5379;51.034;7.006;2023-02-17T07:06:00;16.00;99.90
10662;DHT22;5379;51.034;7.006;2023-02-17T07:08:26;16.20;99.90
10662;DHT22;5379;51.034;7.006;2023-02-17T07:10:53;16.10;99.90
10662;DHT22;5379;51.034;7.006;2023-02-17T07:13:22;15.90;99.90
10662;DHT22;5379;51.034;7.006;2023-02-17T07:15:49;15.60;99.90
10662;DHT22;5379;51.034;7.006;2023-02-17T07:18:16;15.80;99.90
10662;DHT22;5379;51.034;7.006;2023-02-17T07:20:42;15.70;99.90
10662;DHT22;5379;51.034;7.006;2023-02-17T07:23:09;15.70;99.90
10662;DHT22;5379;51.034;7.006;2023-02-17T07:25:36;15.70;99.90
10662;DHT22;5379;51.034;7.006;2023-02-17T07:28:03;15.60;99.90
10662;DHT22;5379;51.034;7.006;2023-02-17T07:30:35;16.30;99.90
10662;DHT22;5379;51.034;7.006;2023-02-17T07:33:02;15.60;99.90
10662;DHT22;5379;51.034;7.006;2023-02-17T07:35:29;15.70;99.90
10662;DHT22;5379;51.034;7.006;2023-02-17T07:37:56;15.60;99.90
10662;DHT22;5379;51.034;7.006;2023-02-17T07:40:24;15.60;99.90
10662;DHT22;5379;51.034;7.006;2023-02-17T07:42:51;15.60;99.90
10662;DHT22;5379;51.034;7.006;2023-02-17T07:45:18;15.60;99.90
10662;DHT22;5379;51.034;7.006;2023-02-17T07:47:47;15.40;99.90
10662;DHT22;5379;51.034;7.006;2023-02-17T07:50:14;15.20;99.90
10662;DHT22;5379;51.034;7.006;2023-02-17T07:52:41;15.20;99.90
10662;DHT22;5379;51.034;7.006;2023-02-17T07:55:08;15.20;99.90
10662;DHT22;5379;51.034;7.006;2023-02-17T07:57:35;15.20;99.90
10662;DHT22;5379;51.034;7.006;2023-02-17T08:00:03;15.40;99.90
10662;DHT22;5379;51.034;7.006;2023-02-17T08:02:30;15.60;99.90
10662;DHT22;5379;51.034;7.006;2023-02-17T08:04:58;15.70;99.90
10662;DHT22;5379;51.034;7.006;2023-02-17T08:07:25;15.90;99.90
10662;DHT22;5379;51.034;7.006;2023-02-17T08:09:52;15.90;99.90
10662;DHT22;5379;51.034;7.006;2023-02-17T08:12:37;15.80;99.90
10662;DHT22;5379;51.034;7.006;2023-02-17T08:15:31;15.80;99.90
10662;DHT22;5379;51.034;7.006;2023-02-17T08:17:59;15.60;99.90
10662;DHT22;5379;51.034;7.006;2023-02-17T08:20:28;15.60;99.90
10662;DHT22;5379;51.034;7.006;2023-02-17T08:22:55;15.80;99.90
10662;DHT22;5379;51.034;7.006;2023-02-17T08:25:22;15.80;99.90
10662;DHT22;5379;51.034;7.006;2023-02-17T08:27:49;15.90;99.90
10662;DHT22;5379;51.034;7.006;2023-02-17T08:30:16;16.00;99.90
10662;DHT22;5379;51.034;7.006;2023-02-17T08:32:44;16.00;99.90
10662;DHT22;5379;51.034;7.006;2023-02-17T08:35:12;16.00;99.90
10662;DHT22;5379;51.034;7.006;2023-02-17T08:37:40;16.10;99.90
10662;DHT22;5379;51.034;7.006;2023-02-17T08:40:08;16.20;99.90
10662;DHT22;5379;51.034;7.006;2023-02-17T08:42:35;16.40;99.90
10662;DHT22;5379;51.034;7.006;2023-02-17T08:45:04;16.20;99.90
10662;DHT22;5379;51.034;7.006;2023-02-17T08:47:31;16.00;99.90
10662;DHT22;5379;51.034;7.006;2023-02-17T08:49:58;16.20;99.90
10662;DHT22;5379;51.034;7.006;2023-02-17T08:52:25;16.10;99.90
10662;DHT22;5379;51.034;7.006;2023-02-17T08:54:53;16.00;99.90
10662;DHT22;5379;51.034;7.006;2023-02-17T08:57:20;16.30;99.90
10662;DHT22;5379;51.034;7.006;2023-02-17T08:59:47;16.20;99.90
10662;DHT22;5379;51.034;7.006;2023-02-17T09:02:15;16.20;99.90
10662;DHT22;5379;51.034;7.006;2023-02-17T09:04:42;16.30;99.90
10662;DHT22;5379;51.034;7.006;2023-02-17T09:07:10;16.40;99.90
10662;DHT22;5379;51.034;7.006;2023-02-17T09:09:37;16.40;99.90
10662;DHT22;5379;51.034;7.006;2023-02-17T09:12:06;16.60;99.90
10662;DHT22;5379;51.034;7.006;2023-02-17T09:14:33;16.40;99.90
10662;DHT22;5379;51.034;7.006;2023-02-17T09:17:00;16.40;99.90
10662;DHT22;5379;51.034;7.006;2023-02-17T09:19:29;16.40;99.90
10662;DHT22;5379;51.034;7.006;2023-02-17T09:21:55;16.70;99.90
10662;DHT22;5379;51.034;7.006;2023-02-17T09:24:24;16.70;99.90
10662;DHT22;5379;51.034;7.006;2023-02-17T09:26:51;16.70;99.90
10662;DHT22;5379;51.034;7.006;2023-02-17T09:29:19;16.80;99.90
10662;DHT22;5379;51.034;7.006;2023-02-17T09:31:46;17.00;99.90
10662;DHT22;5379;51.034;7.006;2023-02-17T09:34:13;17.00;99.90
10662;DHT22;5379;51.034;7.006;2023-02-17T09:36:41;17.20;99.90
10662;DHT22;5379;51.034;7.006;2023-02-17T09:39:08;17.20;99.90
10662;DHT22;5379;51.034;7.006;2023-02-17T09:41:38;17.40;99.90
10662;DHT22;5379;51.034;7.006;2023-02-17T09:44:15;17.50;99.90
10662;DHT22;5379;51.034;7.006;2023-02-17T09:46:48;17.50;99.90
10662;DHT22;5379;51.034;7.006;2023-02-17T09:49:20;17.30;99.90
10662;DHT22;5379;51.034;7.006;2023-02-17T09:51:52;17.20;99.90
10662;DHT22;5379;51.034;7.006;2023-02-17T09:54:24;17.40;99.90
10662;DHT22;5379;51.034;7.006;2023-02-17T09:56:55;17.50;99.90
10662;DHT22;5379;51.034;7.006;2023-02-17T09:59:28;17.40;99.90
10662;DHT22;5379;51.034;7.006;2023-02-17T10:01:57;17.40;99.90
10662;DHT22;5379;51.034;7.006;2023-02-17T10:04:32;17.40;99.90
10662;DHT22;5379;51.034;7.006;2023-02-17T10:07:08;17.30;99.90
10662;DHT22;5379;51.034;7.006;2023-02-17T10:09:40;17.60;99.90
10662;DHT22;5379;51.034;7.006;2023-02-17T10:12:13;17.80;99.90
10662;DHT22;5379;51.034;7.006;2023-02-17T10:14:45;17.90;99.90
10662;DHT22;5379;51.034;7.006;2023-02-17T10:17:19;18.40;99.90
10662;DHT22;5379;51.034;7.006;2023-02-17T10:19:52;18.30;99.90
10662;DHT22;5379;51.034;7.006;2023-02-17T10:22:21;18.10;99.90
10662;DHT22;5379;51.034;7.006;2023-02-17T10:24:49;18.10;99.90
10662;DHT22;5379;51.034;7.006;2023-02-17T10:27:35;18.10;99.90
10662;DHT22;5379;51.034;7.006;2023-02-17T10:30:25;18.10;99.90
10662;DHT22;5379;51.034;7.006;2023-02-17T10:33:11;18.20;99.90
10662;DHT22;5379;51.034;7.006;2023-02-17T10:35:49;18.50;99.90
10662;DHT22;5379;51.034;7.006;2023-02-17T10:38:21;18.30;99.90
10662;DHT22;5379;51.034;7.006;2023-02-17T10:40:54;18.40;99.90
10662;DHT22;5379;51.034;7.006;2023-02-17T10:43:25;18.40;99.90
10662;DHT22;5379;51.034;7.006;2023-02-17T10:45:55;18.80;99.90
10662;DHT22;5379;51.034;7.006;2023-02-17T10:48:30;19.00;99.90
10662;DHT22;5379;51.034;7.006;2023-02-17T10:51:00;19.00;99.90
10662;DHT22;5379;51.034;7.006;2023-02-17T10:53:30;19.10;99.90
10662;DHT22;5379;51.034;7.006;2023-02-17T10:56:02;18.90;99.90
10662;DHT22;5379;51.034;7.006;2023-02-17T10:58:32;18.70;99.90
10662;DHT22;5379;51.034;7.006;2023-02-17T11:01:02;18.70;99.90
10662;DHT22;5379;51.034;7.006;2023-02-17T11:03:34;19.10;99.90
10662;DHT22;5379;51.034;7.006;2023-02-17T11:06:04;19.40;99.90
10662;DHT22;5379;51.034;7.006;2023-02-17T11:08:34;19.50;99.90
10662;DHT22;5379;51.034;7.006;2023-02-17T11:11:04;19.40;99.90
10662;DHT22;5379;51.034;7.006;2023-02-17T11:13:36;19.60;99.90
10662;DHT22;5379;51.034;7.006;2023-02-17T11:16:04;19.80;99.90
10662;DHT22;5379;51.034;7.006;2023-02-17T11:18:34;19.60;99.90
10662;DHT22;5379;51.034;7.006;2023-02-17T11:21:06;19.50;99.90
10662;DHT22;5379;51.034;7.006;2023-02-17T11:23:34;19.00;99.90
10662;DHT22;5379;51.034;7.006;2023-02-17T11:26:08;19.00;99.90
10662;DHT22;5379;51.034;7.006;2023-02-17T11:28:35;19.30;99.90
10662;DHT22;5379;51.034;7.006;2023-02-17T11:31:02;19.30;99.90
10662;DHT22;5379;51.034;7.006;2023-02-17T11:33:35;19.20;99.90
10662;DHT22;5379;51.034;7.006;2023-02-17T11:36:04;19.40;99.90
10662;DHT22;5379;51.034;7.006;2023-02-17T11:38:42;19.40;99.90
10662;DHT22;5379;51.034;7.006;2023-02-17T11:41:09;19.50;99.90
10662;DHT22;5379;51.034;7.006;2023-02-17T11:43:37;19.60;99.90
10662;DHT22;5379;51.034;7.006;2023-02-17T11:46:19;19.70;99.90
10662;DHT22;5379;51.034;7.006;2023-02-17T11:49:27;19.90;99.90
10662;DHT22;5379;51.034;7.006;2023-02-17T11:52:07;20.30;99.90
10662;DHT22;5379;51.034;7.006;2023-02-17T11:54:50;20.00;99.90
10662;DHT22;5379;51.034;7.006;2023-02-17T11:57:30;19.90;99.90
10662;DHT22;5379;51.034;7.006;2023-02-17T12:00:14;19.70;99.90
10662;DHT22;5379;51.034;7.006;2023-02-17T12:03:14;19.80;99.90
10662;DHT22;5379;51.034;7.006;2023-02-17T12:05:54;19.40;99.90
10662;DHT22;5379;51.034;7.006;2023-02-17T12:08:33;19.70;99.90
10662;DHT22;5379;51.034;7.006;2023-02-17T12:11:10;19.80;99.90
10662;DHT22;5379;51.034;7.006;2023-02-17T12:13:50;20.10;99.90
10662;DHT22;5379;51.034;7.006;2023-02-17T12:16:37;20.40;99.90
10662;DHT22;5379;51.034;7.006;2023-02-17T12:19:22;20.50;99.80
10662;DHT22;5379;51.034;7.006;2023-02-17T12:22:01;20.50;99.70
10662;DHT22;5379;51.034;7.006;2023-02-17T12:24:38;20.50;99.90
10662;DHT22;5379;51.034;7.006;2023-02-17T12:27:13;20.40;99.90
10662;DHT22;5379;51.034;7.006;2023-02-17T12:30:02;20.40;99.90
10662;DHT22;5379;51.034;7.006;2023-02-17T12:32:43;20.40;99.70
10662;DHT22;5379;51.034;7.006;2023-02-17T12:35:16;20.50;99.70
10662;DHT22;5379;51.034;7.006;2023-02-17T12:37:49;20.50;99.30
10662;DHT22;5379;51.034;7.006;2023-02-17T12:40:27;20.40;99.90
10662;DHT22;5379;51.034;7.006;2023-02-17T12:43:00;20.60;99.90
10662;DHT22;5379;51.034;7.006;2023-02-17T12:45:34;20.80;99.90
10662;DHT22;5379;51.034;7.006;2023-02-17T12:48:06;20.70;99.40
10662;DHT22;5379;51.034;7.006;2023-02-17T12:50:37;20.40;99.90
10662;DHT22;5379;51.034;7.006;2023-02-17T12:53:11;19.60;99.80
10662;DHT22;5379;51.034;7.006;2023-02-17T12:55:43;20.30;99.90
10662;DHT22;5379;51.034;7.006;2023-02-17T12:58:16;20.30;99.90
10662;DHT22;5379;51.034;7.006;2023-02-17T13:00:47;20.40;99.40
10662;DHT22;5379;51.034;7.006;2023-02-17T13:03:17;20.50;99.50
10662;DHT22;5379;51.034;7.006;2023-02-17T13:05:47;20.30;99.40
10662;DHT22;5379;51.034;7.006;2023-02-17T13:08:23;20.40;99.50
10662;DHT22;5379;51.034;7.006;2023-02-17T13:11:00;20.60;99.80
10662;DHT22;5379;51.034;7.006;2023-02-17T13:13:29;20.60;99.10
10662;DHT22;5379;51.034;7.006;2023-02-17T13:16:02;20.70;99.40
10662;DHT22;5379;51.034;7.006;2023-02-17T13:18:31;20.80;99.80
10662;DHT22;5379;51.034;7.006;2023-02-17T13:20:59;20.80;99.20
10662;DHT22;5379;51.034;7.006;2023-02-17T13:23:43;20.70;98.90
10662;DHT22;5379;51.034;7.006;2023-02-17T13:26:34;20.70;99.90
10662;DHT22;5379;51.034;7.006;2023-02-17T13:29:19;20.70;99.90
10662;DHT22;5379;51.034;7.006;2023-02-17T13:31:51;20.60;99.90
10662;DHT22;5379;51.034;7.006;2023-02-17T13:34:28;20.60;99.90
10662;DHT22;5379;51.034;7.006;2023-02-17T13:36:56;20.60;99.90
10662;DHT22;5379;51.034;7.006;2023-02-17T13:39:34;20.60;99.20
10662;DHT22;5379;51.034;7.006;2023-02-17T13:42:02;20.40;99.30
10662;DHT22;5379;51.034;7.006;2023-02-17T13:44:37;20.50;99.20
10662;DHT22;5379;51.034;7.006;2023-02-17T13:53:52;20.70;99.50
10662;DHT22;5379;51.034;7.006;2023-02-17T14:02:49;20.60;99.90
10662;DHT22;5379;51.034;7.006;2023-02-17T14:05:18;20.50;99.90
10662;DHT22;5379;51.034;7.006;2023-02-17T14:07:46;20.30;99.90
10662;DHT22;5379;51.034;7.006;2023-02-17T14:10:18;20.70;99.90
10662;DHT22;5379;51.034;7.006;2023-02-17T14:12:45;20.60;99.70
10662;DHT22;5379;51.034;7.006;2023-02-17T14:15:15;20.50;99.10
10662;DHT22;5379;51.034;7.006;2023-02-17T14:17:42;20.60;99.20
10662;DHT22;5379;51.034;7.006;2023-02-17T14:20:27;20.60;99.30
10662;DHT22;5379;51.034;7.006;2023-02-17T14:23:03;20.60;99.10
10662;DHT22;5379;51.034;7.006;2023-02-17T14:25:33;20.40;99.00
10662;DHT22;5379;51.034;7.006;2023-02-17T14:28:00;20.50;99.90
10662;DHT22;5379;51.034;7.006;2023-02-17T14:30:29;20.60;99.10
10662;DHT22;5379;51.034;7.006;2023-02-17T14:33:07;20.50;99.20
10662;DHT22;5379;51.034;7.006;2023-02-17T14:35:35;20.50;99.50
10662;DHT22;5379;51.034;7.006;2023-02-17T14:38:09;20.80;99.00
10662;DHT22;5379;51.034;7.006;2023-02-17T14:40:44;20.80;98.50
10662;DHT22;5379;51.034;7.006;2023-02-17T14:43:11;20.90;99.40
10662;DHT22;5379;51.034;7.006;2023-02-17T14:45:38;20.90;98.80
10662;DHT22;5379;51.034;7.006;2023-02-17T14:48:04;21.00;98.90
10662;DHT22;5379;51.034;7.006;2023-02-17T14:50:32;20.90;98.70
10662;DHT22;5379;51.034;7.006;2023-02-17T14:53:01;20.90;98.90
10662;DHT22;5379;51.034;7.006;2023-02-17T14:55:31;20.80;98.90
10662;DHT22;5379;51.034;7.006;2023-02-17T14:57:59;20.80;99.60
10662;DHT22;5379;51.034;7.006;2023-02-17T15:00:26;20.50;99.60
10662;DHT22;5379;51.034;7.006;2023-02-17T15:02:53;20.60;98.90
10662;DHT22;5379;51.034;7.006;2023-02-17T15:05:20;20.50;99.90
10662;DHT22;5379;51.034;7.006;2023-02-17T15:07:47;20.60;99.70
10662;DHT22;5379;51.034;7.006;2023-02-17T15:10:21;20.70;99.10
10662;DHT22;5379;51.034;7.006;2023-02-17T15:12:50;20.60;99.50
10662;DHT22;5379;51.034;7.006;2023-02-17T15:15:18;20.40;99.90
10662;DHT22;5379;51.034;7.006;2023-02-17T15:17:45;20.60;99.90
10662;DHT22;5379;51.034;7.006;2023-02-17T15:20:14;20.30;99.90
10662;DHT22;5379;51.034;7.006;2023-02-17T15:22:42;20.20;99.90
10662;DHT22;5379;51.034;7.006;2023-02-17T15:25:12;20.10;99.80
10662;DHT22;5379;51.034;7.006;2023-02-17T15:27:42;20.10;99.90
10662;DHT22;5379;51.034;7.006;2023-02-17T15:30:10;20.10;99.90
10662;DHT22;5379;51.034;7.006;2023-02-17T15:32:39;20.20;99.90
10662;DHT22;5379;51.034;7.006;2023-02-17T15:35:25;20.20;99.50
10662;DHT22;5379;51.034;7.006;2023-02-17T15:37:53;20.00;99.70
10662;DHT22;5379;51.034;7.006;2023-02-17T15:40:23;19.90;99.30
10662;DHT22;5379;51.034;7.006;2023-02-17T15:42:53;19.60;99.70
10662;DHT22;5379;51.034;7.006;2023-02-17T15:45:22;19.70;99.70
10662;DHT22;5379;51.034;7.006;2023-02-17T15:47:55;18.20;99.20
10662;DHT22;5379;51.034;7.006;2023-02-17T15:50:25;19.90;99.60
10662;DHT22;5379;51.034;7.006;2023-02-17T15:52:52;19.80;99.80
10662;DHT22;5379;51.034;7.006;2023-02-17T15:55:20;19.90;99.50
10662;DHT22;5379;51.034;7.006;2023-02-17T15:57:52;20.00;99.10
10662;DHT22;5379;51.034;7.006;2023-02-17T16:00:30;19.90;99.40
10662;DHT22;5379;51.034;7.006;2023-02-17T16:06:22;19.20;99.90
10662;DHT22;5379;51.034;7.006;2023-02-17T16:08:49;19.10;99.90
10662;DHT22;5379;51.034;7.006;2023-02-17T16:11:16;19.10;99.90
10662;DHT22;5379;51.034;7.006;2023-02-17T16:13:46;19.00;99.90
10662;DHT22;5379;51.034;7.006;2023-02-17T16:16:16;18.60;99.90
10662;DHT22;5379;51.034;7.006;2023-02-17T16:18:44;18.00;99.90
10662;DHT22;5379;51.034;7.006;2023-02-17T16:21:11;18.00;99.90
10662;DHT22;5379;51.034;7.006;2023-02-17T16:23:39;17.80;99.90
10662;DHT22;5379;51.034;7.006;2023-02-17T16:26:13;17.50;99.90
10662;DHT22;5379;51.034;7.006;2023-02-17T16:28:41;18.10;99.90
10662;DHT22;5379;51.034;7.006;2023-02-17T16:31:11;19.00;99.90
10662;DHT22;5379;51.034;7.006;2023-02-17T16:33:38;19.70;99.50
10662;DHT22;5379;51.034;7.006;2023-02-17T16:36:12;19.40;99.90
10662;DHT22;5379;51.034;7.006;2023-02-17T16:38:40;19.20;99.90
10662;DHT22;5379;51.034;7.006;2023-02-17T16:41:11;19.10;99.90
10662;DHT22;5379;51.034;7.006;2023-02-17T16:43:40;19.20;99.90
10662;DHT22;5379;51.034;7.006;2023-02-17T16:46:19;19.30;99.90
10662;DHT22;5379;51.034;7.006;2023-02-17T16:48:48;19.00;99.90
10662;DHT22;5379;51.034;7.006;2023-02-17T16:51:15;18.40;99.90
10662;DHT22;5379;51.034;7.006;2023-02-17T16:53:43;18.10;99.90
10662;DHT22;5379;51.034;7.006;2023-02-17T16:56:15;18.20;99.90
10662;DHT22;5379;51.034;7.006;2023-02-17T16:58:43;18.70;99.90
10662;DHT22;5379;51.034;7.006;2023-02-17T17:01:12;19.10;99.90
10662;DHT22;5379;51.034;7.006;2023-02-17T17:03:40;18.80;99.90
10662;DHT22;5379;51.034;7.006;2023-02-17T17:06:18;18.70;99.90
10662;DHT22;5379;51.034;7.006;2023-02-17T17:08:46;18.60;99.90
10662;DHT22;5379;51.034;7.006;2023-02-17T17:11:14;18.40;99.90
10662;DHT22;5379;51.034;7.006;2023-02-17T17:13:42;18.10;99.90
10662;DHT22;5379;51.034;7.006;2023-02-17T17:16:14;17.90;99.90
10662;DHT22;5379;51.034;7.006;2023-02-17T17:18:41;18.20;99.90
10662;DHT22;5379;51.034;7.006;2023-02-17T17:21:10;17.80;99.90
10662;DHT22;5379;51.034;7.006;2023-02-17T17:23:37;17.60;99.90
10662;DHT22;5379;51.034;7.006;2023-02-17T17:26:14;17.70;99.90
10662;DHT22;5379;51.034;7.006;2023-02-17T17:28:44;17.70;99.90
10662;DHT22;5379;51.034;7.006;2023-02-17T17:31:14;17.40;99.90
10662;DHT22;5379;51.034;7.006;2023-02-17T17:33:42;17.30;99.90
10662;DHT22;5379;51.034;7.006;2023-02-17T17:36:14;17.20;99.90
10662;DHT22;5379;51.034;7.006;2023-02-17T17:38:42;17.10;99.90
10662;DHT22;5379;51.034;7.006;2023-02-17T17:41:10;17.50;99.90
10662;DHT22;5379;51.034;7.006;2023-02-17T17:43:38;17.70;99.90
10662;DHT22;5379;51.034;7.006;2023-02-17T17:46:10;17.40;99.90
10662;DHT22;5379;51.034;7.006;2023-02-17T17:48:40;17.20;99.90
10662;DHT22;5379;51.034;7.006;2023-02-17T17:51:07;17.30;99.90
10662;DHT22;5379;51.034;7.006;2023-02-17T17:53:36;17.40;99.90
10662;DHT22;5379;51.034;7.006;2023-02-17T17:56:04;18.10;99.90
10662;DHT22;5379;51.034;7.006;2023-02-17T17:58:31;18.40;99.90
10662;DHT22;5379;51.034;7.006;2023-02-17T18:01:02;18.20;99.90
10662;DHT22;5379;51.034;7.006;2023-02-17T18:03:29;18.80;99.90
10662;DHT22;5379;51.034;7.006;2023-02-17T18:05:57;18.70;99.90
10662;DHT22;5379;51.034;7.006;2023-02-17T18:08:24;19.10;99.90
10662;DHT22;5379;51.034;7.006;2023-02-17T18:10:51;18.90;99.90
10662;DHT22;5379;51.034;7.006;2023-02-17T18:13:18;18.70;99.90
10662;DHT22;5379;51.034;7.006;2023-02-17T18:15:46;18.90;99.90
10662;DHT22;5379;51.034;7.006;2023-02-17T18:18:13;18.70;99.90
10662;DHT22;5379;51.034;7.006;2023-02-17T18:20:40;18.50;99.90
10662;DHT22;5379;51.034;7.006;2023-02-17T18:23:08;18.30;99.90
10662;DHT22;5379;51.034;7.006;2023-02-17T18:25:35;18.50;99.90
10662;DHT22;5379;51.034;7.006;2023-02-17T18:28:02;18.70;99.90
10662;DHT22;5379;51.034;7.006;2023-02-17T18:30:29;18.90;99.90
10662;DHT22;5379;51.034;7.006;2023-02-17T18:32:56;19.10;99.90
10662;DHT22;5379;51.034;7.006;2023-02-17T18:35:23;18.90;99.90
10662;DHT22;5379;51.034;7.006;2023-02-17T18:37:50;18.80;99.90
10662;DHT22;5379;51.034;7.006;2023-02-17T18:40:19;18.50;99.90
10662;DHT22;5379;51.034;7.006;2023-02-17T18:42:47;18.70;99.90
10662;DHT22;5379;51.034;7.006;2023-02-17T18:45:15;18.40;99.90
10662;DHT22;5379;51.034;7.006;2023-02-17T18:47:42;18.40;99.90
10662;DHT22;5379;51.034;7.006;2023-02-17T18:50:11;17.80;99.90
10662;DHT22;5379;51.034;7.006;2023-02-17T18:52:39;17.80;99.90
10662;DHT22;5379;51.034;7.006;2023-02-17T18:55:08;17.80;99.90
10662;DHT22;5379;51.034;7.006;2023-02-17T18:57:36;17.90;99.90
10662;DHT22;5379;51.034;7.006;2023-02-17T19:00:05;17.90;99.90
10662;DHT22;5379;51.034;7.006;2023-02-17T19:02:34;18.50;99.90
10662;DHT22;5379;51.034;7.006;2023-02-17T19:05:02;18.50;99.90
10662;DHT22;5379;51.034;7.006;2023-02-17T19:07:29;18.10;99.90
10662;DHT22;5379;51.034;7.006;2023-02-17T19:09:56;18.20;99.90
10662;DHT22;5379;51.034;7.006;2023-02-17T19:12:23;18.00;99.90
10662;DHT22;5379;51.034;7.006;2023-02-17T19:14:52;18.30;99.90
10662;DHT22;5379;51.034;7.006;2023-02-17T19:17:21;18.30;99.90
10662;DHT22;5379;51.034;7.006;2023-02-17T19:19:51;18.20;99.90
10662;DHT22;5379;51.034;7.006;2023-02-17T19:22:18;18.70;99.90
10662;DHT22;5379;51.034;7.006;2023-02-17T19:24:49;18.70;99.90
10662;DHT22;5379;51.034;7.006;2023-02-17T19:27:16;17.90;99.90
10662;DHT22;5379;51.034;7.006;2023-02-17T19:29:43;17.40;99.90
10662;DHT22;5379;51.034;7.006;2023-02-17T19:32:12;17.60;99.90
10662;DHT22;5379;51.034;7.006;2023-02-17T19:34:39;17.90;99.90
10662;DHT22;5379;51.034;7.006;2023-02-17T19:37:06;18.30;99.90
10662;DHT22;5379;51.034;7.006;2023-02-17T19:39:35;18.50;99.90
10662;DHT22;5379;51.034;7.006;2023-02-17T19:42:02;18.40;99.90
10662;DHT22;5379;51.034;7.006;2023-02-17T19:44:30;18.20;99.90
10662;DHT22;5379;51.034;7.006;2023-02-17T19:46:57;18.50;99.90
10662;DHT22;5379;51.034;7.006;2023-02-17T19:49:25;19.10;99.90
10662;DHT22;5379;51.034;7.006;2023-02-17T19:51:52;19.00;99.90
10662;DHT22;5379;51.034;7.006;2023-02-17T19:54:21;18.90;99.90
10662;DHT22;5379;51.034;7.006;2023-02-17T19:56:49;18.80;99.90
10662;DHT22;5379;51.034;7.006;2023-02-17T19:59:16;18.00;99.90
10662;DHT22;5379;51.034;7.006;2023-02-17T20:01:43;17.90;99.90
10662;DHT22;5379;51.034;7.006;2023-02-17T20:04:10;17.80;99.90
10662;DHT22;5379;51.034;7.006;2023-02-17T20:06:40;18.10;99.90
10662;DHT22;5379;51.034;7.006;2023-02-17T20:09:10;18.00;99.90
10662;DHT22;5379;51.034;7.006;2023-02-17T20:11:37;18.20;99.90
10662;DHT22;5379;51.034;7.006;2023-02-17T20:14:05;18.50;99.90
10662;DHT22;5379;51.034;7.006;2023-02-17T20:16:32;18.20;99.90
10662;DHT22;5379;51.034;7.006;2023-02-17T20:18:59;17.90;99.90
10662;DHT22;5379;51.034;7.006;2023-02-17T20:21:29;17.90;99.90
10662;DHT22;5379;51.034;7.006;2023-02-17T20:23:57;18.20;99.90
10662;DHT22;5379;51.034;7.006;2023-02-17T20:26:26;17.70;99.90
10662;DHT22;5379;51.034;7.006;2023-02-17T20:28:54;17.50;99.90
10662;DHT22;5379;51.034;7.006;2023-02-17T20:31:22;17.80;99.90
10662;DHT22;5379;51.034;7.006;2023-02-17T20:33:49;17.70;99.90
10662;DHT22;5379;51.034;7.006;2023-02-17T20:36:17;18.00;99.90
10662;DHT22;5379;51.034;7.006;2023-02-17T20:38:44;17.80;99.90
10662;DHT22;5379;51.034;7.006;2023-02-17T20:41:15;18.30;99.90
10662;DHT22;5379;51.034;7.006;2023-02-17T20:43:42;18.20;99.90
10662;DHT22;5379;51.034;7.006;2023-02-17T20:46:12;18.30;99.90
10662;DHT22;5379;51.034;7.006;2023-02-17T20:48:39;18.50;99.90